Time;durP1;ratioP1;P1;durP2;ratioP2;P2;SDS_P1;SDS_P2;PMS_P1;PMS_P2;Temp;Humidity;BMP_temperature;BMP_pressure;BME280_temperature;BME280_humidity;BME280_pressure;Samples;Min_cycle;Max_cycle;Signal;HPM_P1;HPM_P2
2022/11/01 00:00:48;;;;;;;20.10;8.23;;;;;;;14.23;53.40;100085.03;5051073;28;20427;-70
2022/11/01 00:03:13;;;;;;;23.13;8.18;;;;;;;14.28;53.86;100096.09;5034176;28;20087;-69
2022/11/01 00:05:39;;;;;;;18.42;7.75;;;;;;;14.13;54.20;100095.56;5034326;28;20427;-69
2022/11/01 00:08:04;;;;;;;15.65;7.85;;;;;;;14.13;54.02;100091.91;5051939;28;20063;-69
2022/11/01 00:10:30;;;;;;;25.58;8.02;;;;;;;14.11;53.93;100083.00;5051769;28;20488;-69
2022/11/01 00:12:55;;;;;;;16.02;7.20;;;;;;;14.10;54.01;100084.16;5052256;28;20028;-69
2022/11/01 00:15:21;;;;;;;17.20;7.35;;;;;;;14.02;54.47;100085.88;5051069;28;20032;-69
2022/11/01 00:17:46;;;;;;;16.63;6.63;;;;;;;13.98;54.66;100085.75;5051855;28;20021;-69
2022/11/01 00:20:11;;;;;;;16.20;8.13;;;;;;;13.94;54.70;100083.97;5034025;28;20032;-69
2022/11/01 00:22:37;;;;;;;16.75;7.85;;;;;;;13.95;54.90;100083.63;5051861;28;20033;-70
2022/11/01 00:25:03;;;;;;;19.15;7.85;;;;;;;14.10;54.01;100090.59;5034238;28;20415;-69
2022/11/01 00:27:28;;;;;;;22.00;7.60;;;;;;;14.15;53.84;100084.78;5051786;28;20017;-69
2022/11/01 00:29:53;;;;;;;22.25;7.82;;;;;;;14.21;53.74;100084.56;5049637;28;20032;-69
2022/11/01 00:32:19;;;;;;;15.95;6.82;;;;;;;14.28;53.72;100093.28;5051600;28;20036;-69
2022/11/01 00:34:44;;;;;;;13.70;8.50;;;;;;;14.26;53.48;100090.78;5033703;28;20455;-69
2022/11/01 00:37:10;;;;;;;14.35;7.63;;;;;;;14.32;52.89;100091.41;5051134;28;20387;-69
2022/11/01 00:39:35;;;;;;;18.73;6.60;;;;;;;14.27;52.96;100091.63;5051826;28;20387;-70
2022/11/01 00:42:01;;;;;;;13.38;7.05;;;;;;;14.34;52.95;100091.88;5033704;28;20415;-69
2022/11/01 00:44:26;;;;;;;16.88;7.75;;;;;;;14.31;52.94;100087.78;5017957;28;20111;-69
2022/11/01 00:46:51;;;;;;;14.88;6.18;;;;;;;14.30;53.26;100082.50;5051386;28;20079;-69
2022/11/01 00:49:17;;;;;;;14.15;7.63;;;;;;;14.27;53.40;100086.81;5051406;28;20029;-69
2022/11/01 00:51:42;;;;;;;17.05;7.45;;;;;;;14.29;53.48;100080.84;5050872;28;20029;-69
2022/11/01 00:54:08;;;;;;;12.98;7.13;;;;;;;14.32;53.42;100080.97;5051507;28;20032;-69
2022/11/01 00:56:33;;;;;;;15.50;7.28;;;;;;;14.31;53.26;100070.06;5051409;28;20021;-70
2022/11/01 00:58:59;;;;;;;13.45;7.82;;;;;;;14.32;53.51;100082.97;5032807;28;20033;-69
2022/11/01 01:01:24;;;;;;;16.60;7.70;;;;;;;14.38;54.53;100075.97;5051608;28;20519;-70
2022/11/01 01:03:50;;;;;;;20.95;9.57;;;;;;;14.36;53.70;100067.06;5051268;28;20452;-70
2022/11/01 01:06:15;;;;;;;21.67;7.78;;;;;;;14.29;54.50;100070.41;5033431;28;20492;-70
2022/11/01 01:08:40;;;;;;;25.00;9.85;;;;;;;14.25;54.41;100077.09;5051373;28;20023;-70
2022/11/01 01:11:06;;;;;;;15.75;7.82;;;;;;;14.13;54.58;100077.84;5051348;28;20099;-70
2022/11/01 01:13:31;;;;;;;22.73;8.85;;;;;;;13.86;56.00;100069.63;5050845;28;20037;-70
2022/11/01 01:15:57;;;;;;;14.35;7.68;;;;;;;13.64;56.53;100069.97;5051241;28;20033;-70
2022/11/01 01:18:22;;;;;;;18.02;8.00;;;;;;;13.26;57.90;100063.22;5050885;28;20078;-69
2022/11/01 01:20:48;;;;;;;19.95;8.45;;;;;;;13.35;57.64;100072.44;5051252;28;20462;-69
2022/11/01 01:23:13;;;;;;;20.75;8.48;;;;;;;13.46;57.56;100065.28;5051409;28;20021;-69
2022/11/01 01:25:40;;;;;;;25.85;8.77;;;;;;;13.42;57.77;100063.47;5051271;28;20024;-69
2022/11/01 01:28:06;;;;;;;14.48;7.80;;;;;;;13.34;57.56;100068.78;5049309;28;20389;-69
2022/11/01 01:30:31;;;;;;;18.75;8.65;;;;;;;13.46;57.41;100070.06;5050335;28;20040;-69
2022/11/01 01:32:57;;;;;;;14.70;7.63;;;;;;;13.54;56.69;100071.16;5050964;28;20029;-69
2022/11/01 01:35:22;;;;;;;14.00;7.78;;;;;;;13.43;56.79;100071.53;5051058;28;20025;-70
2022/11/01 01:37:48;;;;;;;17.17;6.57;;;;;;;13.53;56.51;100069.53;5025737;28;20029;-69
2022/11/01 01:40:13;;;;;;;13.63;8.15;;;;;;;13.46;56.44;100068.09;5037826;28;20029;-70
2022/11/01 01:42:41;;;;;;;11.40;7.75;;;;;;;13.46;56.26;100073.72;5032245;28;20024;-69
2022/11/01 01:45:19;;;;;;;14.05;8.60;;;;;;;13.36;56.33;100074.06;5051004;28;20107;-69
2022/11/01 01:47:47;;;;;;;12.52;7.38;;;;;;;13.46;56.48;100070.06;5032917;28;20032;-69
2022/11/01 01:50:25;;;;;;;11.88;6.53;;;;;;;13.54;55.95;100083.25;5033089;28;20032;-69
2022/11/01 01:52:59;;;;;;;19.65;8.27;;;;;;;13.37;56.02;100077.69;5050922;28;20059;-69
2022/11/01 01:55:31;;;;;;;14.10;7.18;;;;;;;13.30;56.14;100083.84;5051088;28;20545;-69
2022/11/01 01:57:57;;;;;;;14.48;6.47;;;;;;;13.09;56.61;100078.97;5048167;28;20036;-69
2022/11/01 02:00:23;;;;;;;15.05;6.13;;;;;;;12.96;57.20;100083.66;5033140;28;20033;-69
2022/11/01 02:02:49;;;;;;;13.88;7.18;;;;;;;12.90;57.89;100082.19;5032881;28;20029;-69
2022/11/01 02:05:25;;;;;;;19.73;8.15;;;;;;;12.68;58.64;100081.28;5036361;28;20131;-69
2022/11/01 02:07:52;;;;;;;13.93;7.35;;;;;;;12.68;58.49;100089.72;5054458;28;20100;-69
2022/11/01 02:10:19;;;;;;;25.98;9.02;;;;;;;12.58;58.92;100079.66;5054302;28;20057;-69
2022/11/01 02:12:47;;;;;;;16.85;6.85;;;;;;;12.59;58.84;100089.72;5053555;28;20112;-69
2022/11/01 02:15:14;;;;;;;13.45;7.18;;;;;;;12.55;59.14;100087.91;5036114;28;20036;-69
2022/11/01 02:17:52;;;;;;;17.40;7.30;;;;;;;12.65;58.90;100090.34;5054051;28;20021;-69
2022/11/01 02:20:40;;;;;;;13.50;6.68;;;;;;;12.77;58.57;100096.09;5054401;28;20474;-69
2022/11/01 02:23:14;;;;;;;10.15;5.90;;;;;;;12.71;58.00;100091.00;5035889;28;20071;-69
2022/11/01 02:25:52;;;;;;;20.25;6.82;;;;;;;12.76;57.84;100100.06;5053277;28;20036;-69
2022/11/01 02:28:36;;;;;;;11.35;7.00;;;;;;;12.83;57.57;100099.56;5053774;28;20090;-69
2022/11/01 02:31:32;;;;;;;14.25;6.15;;;;;;;12.84;57.19;100101.19;5054169;28;20114;-69
2022/11/01 02:34:05;;;;;;;18.77;6.97;;;;;;;12.67;57.58;100104.91;5054120;28;20025;-69
2022/11/01 02:37:14;;;;;;;15.85;7.07;;;;;;;12.57;58.24;100108.06;5053925;28;20116;-69
2022/11/01 02:39:46;;;;;;;15.70;7.32;;;;;;;12.34;58.68;100099.84;5053844;28;20028;-69
2022/11/01 02:42:19;;;;;;;10.55;7.38;;;;;;;11.94;60.14;100101.66;5034543;28;20103;-69
2022/11/01 02:44:53;;;;;;;13.65;7.35;;;;;;;11.99;60.02;100095.03;5053620;28;20029;-69
2022/11/01 02:47:19;;;;;;;15.18;5.97;;;;;;;12.13;59.90;100102.50;5053552;28;20036;-69
2022/11/01 02:49:53;;;;;;;12.93;6.60;;;;;;;12.33;58.83;100101.00;5053671;28;20028;-69
2022/11/01 02:52:23;;;;;;;18.48;7.22;;;;;;;12.47;58.89;100101.63;5053274;28;20029;-69
2022/11/01 02:54:52;;;;;;;14.43;7.07;;;;;;;12.58;58.44;100104.91;5051584;28;20036;-70
2022/11/01 02:57:33;;;;;;;12.30;6.13;;;;;;;12.68;58.27;100103.75;5021916;28;20534;-70
2022/11/01 03:00:04;;;;;;;12.40;7.30;;;;;;;12.76;57.91;100097.25;5053574;28;20021;-70
2022/11/01 03:02:43;;;;;;;20.00;6.40;;;;;;;12.83;57.94;100098.75;5053558;28;20028;-69
2022/11/01 03:05:48;;;;;;;11.23;5.65;;;;;;;12.65;58.53;100110.00;5053428;28;20079;-70
2022/11/01 03:08:20;;;;;;;17.05;7.70;;;;;;;12.65;58.81;100104.38;5034904;28;20470;-69
2022/11/01 03:11:14;;;;;;;14.70;7.47;;;;;;;12.40;59.82;100109.72;5051360;28;20041;-70
2022/11/01 03:13:56;;;;;;;22.33;7.97;;;;;;;12.33;60.00;100117.81;5022976;28;20044;-69
2022/11/01 03:16:45;;;;;;;14.88;7.30;;;;;;;12.33;59.91;100115.03;5053236;28;20488;-69
2022/11/01 03:19:35;;;;;;;13.65;7.38;;;;;;;12.16;60.85;100113.84;5052963;28;20090;-69
2022/11/01 03:22:19;;;;;;;23.33;11.40;;;;;;;11.94;62.09;100107.25;5052967;28;20104;-69
2022/11/01 03:24:54;;;;;;;16.95;8.05;;;;;;;11.98;61.92;100110.19;5052451;28;20085;-69
2022/11/01 03:27:36;;;;;;;12.88;7.63;;;;;;;11.88;62.34;100108.56;5032784;28;20025;-69
2022/11/01 03:30:12;;;;;;;34.38;16.67;;;;;;;11.84;62.56;100113.16;5052848;28;20039;-69
2022/11/01 03:32:48;;;;;;;18.75;8.43;;;;;;;11.57;63.96;100112.28;5034975;28;20082;-69
2022/11/01 03:35:18;;;;;;;11.77;6.10;;;;;;;11.34;65.22;100122.78;5052795;28;20453;-70
2022/11/01 03:37:47;;;;;;;23.33;6.38;;;;;;;11.45;64.66;100123.28;5052434;28;20500;-70
2022/11/01 03:40:16;;;;;;;17.60;7.35;;;;;;;11.57;64.22;100123.47;5050430;28;20555;-69
2022/11/01 03:42:47;;;;;;;15.23;8.18;;;;;;;11.43;64.10;100126.44;5052668;28;20090;-69
2022/11/01 03:45:15;;;;;;;16.38;6.70;;;;;;;11.25;64.87;100133.94;5050211;28;20032;-70
2022/11/01 03:47:41;;;;;;;20.58;8.15;;;;;;;11.38;64.33;100124.59;5034636;28;20412;-69
2022/11/01 03:50:15;;;;;;;16.58;9.13;;;;;;;11.34;64.71;100132.00;5052489;28;20040;-69
2022/11/01 03:52:41;;;;;;;21.05;10.20;;;;;;;11.08;65.70;100143.09;5052074;28;20032;-69
2022/11/01 03:55:17;;;;;;;15.65;9.43;;;;;;;11.11;65.12;100136.03;5033291;28;20033;-69
2022/11/01 03:57:50;;;;;;;15.73;10.90;;;;;;;11.06;65.79;100140.59;5031644;28;20032;-69
2022/11/01 04:00:40;;;;;;;22.83;11.88;;;;;;;10.97;65.91;100133.31;5052393;28;20032;-69
2022/11/01 04:03:06;;;;;;;22.50;11.80;;;;;;;11.00;65.78;100139.09;5052332;28;20036;-69
2022/11/01 04:05:34;;;;;;;17.58;10.85;;;;;;;10.98;66.03;100129.38;5033677;28;20042;-69
2022/11/01 04:08:00;;;;;;;22.52;10.27;;;;;;;10.94;65.87;100130.03;5030137;28;20052;-69
2022/11/01 04:10:27;;;;;;;21.42;13.10;;;;;;;10.90;65.71;100134.59;5042785;28;20182;-70
2022/11/01 04:12:53;;;;;;;15.90;10.20;;;;;;;10.87;65.96;100137.22;5023411;28;20132;-69
2022/11/01 04:21:01;;;;;;;16.80;7.65;;;;;;;10.97;65.57;100139.72;5051548;28;20127;-70
2022/11/01 04:23:27;;;;;;;19.17;11.15;;;;;;;11.10;65.16;100135.19;5038647;28;20412;-69
2022/11/01 04:25:52;;;;;;;30.23;14.25;;;;;;;11.16;64.84;100135.88;5034091;28;20040;-69
2022/11/01 04:28:18;;;;;;;26.33;12.90;;;;;;;11.24;64.17;100135.09;5052002;28;20051;-69
2022/11/01 04:30:43;;;;;;;14.82;9.90;;;;;;;11.05;65.32;100127.75;5051738;28;20025;-70
2022/11/01 04:33:09;;;;;;;18.60;10.40;;;;;;;10.81;65.30;100126.16;5051556;28;20158;-70
2022/11/01 04:35:36;;;;;;;25.45;16.20;;;;;;;10.89;64.51;100127.34;5051543;28;20036;-70
2022/11/01 04:38:03;;;;;;;25.48;11.60;;;;;;;10.78;65.20;100132.41;5051701;28;20017;-71
2022/11/01 04:40:29;;;;;;;19.80;9.13;;;;;;;10.54;66.28;100129.94;5031780;28;20017;-69
2022/11/01 04:42:54;;;;;;;33.42;10.20;;;;;;;10.75;65.64;100127.44;5038317;28;20083;-69
2022/11/01 04:45:20;;;;;;;16.85;9.68;;;;;;;10.78;65.75;100131.56;5034187;28;20028;-69
2022/11/01 04:47:52;;;;;;;20.90;9.15;;;;;;;10.82;65.13;100133.41;5047664;28;20544;-69
2022/11/01 04:50:21;;;;;;;17.38;10.63;;;;;;;10.80;65.57;100127.31;5051217;28;20488;-69
2022/11/01 04:52:47;;;;;;;35.75;20.30;;;;;;;10.81;65.30;100130.94;5051140;28;20495;-69
2022/11/01 04:55:13;;;;;;;31.27;15.25;;;;;;;10.78;65.24;100118.41;5048721;28;20412;-71
2022/11/01 04:57:42;;;;;;;22.67;12.05;;;;;;;10.84;65.63;100135.06;5033255;28;20040;-69
2022/11/01 05:00:10;;;;;;;25.30;10.35;;;;;;;10.87;65.45;100134.44;5050923;28;20025;-70
2022/11/01 05:02:36;;;;;;;22.88;9.25;;;;;;;10.92;65.46;100137.91;5036146;28;20082;-70
2022/11/01 05:05:05;;;;;;;19.17;7.82;;;;;;;10.91;66.05;100141.84;5031005;28;20029;-69
2022/11/01 05:07:31;;;;;;;27.27;10.02;;;;;;;11.01;65.24;100135.16;5051221;28;20028;-70
2022/11/01 05:09:56;;;;;;;36.70;11.07;;;;;;;11.24;63.95;100135.91;5050298;28;20021;-74
2022/11/01 05:12:22;;;;;;;15.45;9.02;;;;;;;11.32;63.91;100148.28;5051389;28;20036;-74
2022/11/01 05:14:47;;;;;;;30.98;11.10;;;;;;;11.44;63.86;100136.47;5051359;28;20024;-74
2022/11/01 05:17:13;;;;;;;125.88;19.45;;;;;;;11.55;63.11;100145.41;5013785;28;20025;-74
2022/11/01 05:19:38;;;;;;;27.98;9.55;;;;;;;11.59;63.52;100148.38;5035172;28;20593;-67
2022/11/01 05:22:04;;;;;;;28.42;8.93;;;;;;;11.45;63.68;100138.13;5051122;28;20450;-67
2022/11/01 05:24:29;;;;;;;20.13;7.00;;;;;;;11.62;63.43;100153.34;5048241;28;20395;-67
2022/11/01 05:26:54;;;;;;;14.57;6.90;;;;;;;11.43;63.91;100159.22;5031733;28;20036;-67
2022/11/01 05:29:20;;;;;;;18.55;8.07;;;;;;;11.62;63.76;100156.97;5032147;28;20033;-67
2022/11/01 05:31:45;;;;;;;21.05;7.65;;;;;;;11.71;63.66;100158.97;5050563;28;20021;-67
2022/11/01 05:34:11;;;;;;;23.20;8.13;;;;;;;11.83;63.20;100156.38;5048936;28;20032;-68
2022/11/01 05:36:36;;;;;;;21.63;7.70;;;;;;;11.97;62.82;100159.00;5041629;28;20035;-68
2022/11/01 05:39:02;;;;;;;19.45;7.03;;;;;;;12.05;62.72;100158.22;5027201;28;20036;-68
2022/11/01 05:41:28;;;;;;;20.17;7.53;;;;;;;11.60;64.81;100161.25;5051184;28;20033;-68
2022/11/01 05:43:53;;;;;;;15.27;6.97;;;;;;;11.89;63.79;100157.84;5034625;28;20087;-67
2022/11/01 05:46:19;;;;;;;11.85;6.72;;;;;;;11.96;63.75;100156.56;5033701;28;20029;-67
2022/11/01 05:48:44;;;;;;;42.25;8.93;;;;;;;12.21;63.09;100169.81;5051983;28;20029;-71
2022/11/01 05:51:10;;;;;;;92.97;14.32;;;;;;;12.26;63.05;100170.78;5053698;28;20040;-71
2022/11/01 05:53:35;;;;;;;19.40;7.10;;;;;;;11.85;64.69;100162.47;5052637;28;20032;-72
2022/11/01 05:56:01;;;;;;;18.48;7.28;;;;;;;11.61;65.52;100168.50;5041946;28;20495;-72
2022/11/01 05:58:27;;;;;;;22.05;7.65;;;;;;;12.01;64.62;100176.84;5036390;28;20555;-73
2022/11/01 06:01:03;;;;;;;21.77;8.20;;;;;;;12.36;63.75;100171.25;5034829;28;20057;-73
2022/11/01 06:03:30;;;;;;;15.82;7.63;;;;;;;12.28;63.33;100174.91;5039589;28;20086;-71
2022/11/01 06:05:55;;;;;;;22.77;8.55;;;;;;;12.23;64.20;100182.66;5052549;28;20031;-73
2022/11/01 06:08:20;;;;;;;22.58;8.85;;;;;;;12.57;63.06;100181.03;5046629;28;20032;-73
2022/11/01 06:10:46;;;;;;;26.20;9.05;;;;;;;12.75;62.43;100179.81;5053864;28;20053;-73
2022/11/01 06:13:12;;;;;;;33.65;9.10;;;;;;;12.66;62.20;100186.63;5051893;28;20033;-73
2022/11/01 06:15:37;;;;;;;18.45;8.13;;;;;;;12.33;63.48;100185.97;5054202;28;20052;-73
2022/11/01 06:18:03;;;;;;;15.52;8.43;;;;;;;12.30;64.33;100180.19;5053987;28;20048;-73
2022/11/01 06:20:31;;;;;;;17.63;8.85;;;;;;;12.21;64.27;100186.63;5053888;28;20021;-73
2022/11/01 06:23:00;;;;;;;17.02;6.90;;;;;;;12.20;64.65;100184.97;5053048;28;20045;-73
2022/11/01 06:25:26;;;;;;;29.05;8.73;;;;;;;12.06;65.00;100189.88;5054213;28;20029;-74
2022/11/01 06:27:55;;;;;;;23.33;8.93;;;;;;;12.19;64.09;100193.72;5054091;28;20025;-73
2022/11/01 06:30:20;;;;;;;15.63;7.88;;;;;;;12.18;64.00;100184.47;5053574;28;20488;-73
2022/11/01 06:32:46;;;;;;;21.48;7.53;;;;;;;12.32;63.71;100175.91;5041881;28;20036;-73
2022/11/01 06:35:11;;;;;;;17.63;7.75;;;;;;;12.52;63.21;100184.81;5050732;28;20541;-73
2022/11/01 06:37:40;;;;;;;27.65;12.90;;;;;;;12.92;62.41;100192.19;5032056;28;20511;-73
2022/11/01 06:40:06;;;;;;;37.17;9.60;;;;;;;12.65;62.63;100185.78;5034090;28;20029;-72
2022/11/01 06:42:32;;;;;;;18.58;8.02;;;;;;;12.83;62.77;100191.38;5045498;28;20028;-72
2022/11/01 06:44:57;;;;;;;11.95;7.72;;;;;;;13.11;62.14;100190.97;5049589;28;20075;-71
2022/11/01 06:47:23;;;;;;;13.18;7.80;;;;;;;12.82;63.11;100192.53;5032947;28;20103;-72
2022/11/01 06:49:48;;;;;;;19.58;8.55;;;;;;;13.10;62.28;100176.13;5050074;28;20033;-73
2022/11/01 06:52:14;;;;;;;22.63;8.25;;;;;;;13.15;62.19;100181.56;5049242;28;20120;-72
2022/11/01 06:54:39;;;;;;;15.80;7.03;;;;;;;13.36;62.43;100188.44;5052487;28;20033;-71
2022/11/01 06:57:05;;;;;;;26.13;8.15;;;;;;;13.64;61.90;100176.78;5053045;28;20028;-71
2022/11/01 06:59:30;;;;;;;17.75;7.63;;;;;;;13.81;60.59;100195.50;5052473;28;20495;-69
2022/11/01 07:01:56;;;;;;;34.10;10.35;;;;;;;13.95;60.40;100198.09;5051595;28;20396;-70
2022/11/01 07:04:22;;;;;;;14.93;7.47;;;;;;;14.13;59.68;100193.19;5034760;28;20459;-72
2022/11/01 07:06:47;;;;;;;17.63;8.73;;;;;;;14.31;59.70;100186.25;5043381;28;20025;-72
2022/11/01 07:09:13;;;;;;;22.25;9.30;;;;;;;14.55;59.32;100184.75;5034774;28;20075;-69
2022/11/01 07:11:39;;;;;;;25.60;9.25;;;;;;;14.83;58.17;100194.59;5041440;28;20049;-71
2022/11/01 07:14:05;;;;;;;17.38;8.70;;;;;;;14.62;58.99;100191.78;5052456;28;20029;-71
2022/11/01 07:16:31;;;;;;;19.13;9.02;;;;;;;14.93;57.95;100188.53;5050485;28;20043;-72
2022/11/01 07:18:57;;;;;;;17.70;9.23;;;;;;;14.99;57.73;100187.16;5032416;28;20500;-70
2022/11/01 07:21:23;;;;;;;19.60;8.90;;;;;;;15.07;57.54;100184.59;5051011;28;20044;-71
2022/11/01 07:23:49;;;;;;;36.55;9.65;;;;;;;15.35;56.76;100178.31;5033979;28;20021;-71
2022/11/01 07:26:14;;;;;;;26.98;8.88;;;;;;;15.53;56.17;100184.56;5050137;28;20048;-71
2022/11/01 07:28:40;;;;;;;23.23;7.70;;;;;;;15.66;55.70;100188.19;5047604;28;20488;-69
2022/11/01 07:31:06;;;;;;;57.58;9.98;;;;;;;15.72;55.28;100192.44;5019052;28;20044;-70
2022/11/01 07:33:31;;;;;;;59.92;10.48;;;;;;;15.91;54.55;100200.31;5026849;28;20025;-70
2022/11/01 07:35:57;;;;;;;17.13;7.18;;;;;;;15.97;54.16;100190.44;5049017;28;20029;-66
2022/11/01 07:38:23;;;;;;;15.85;6.18;;;;;;;16.02;54.08;100197.03;5032094;28;20488;-73
2022/11/01 07:40:50;;;;;;;22.13;7.60;;;;;;;16.40;53.00;100190.13;5044169;28;20491;-73
2022/11/01 07:43:16;;;;;;;123.47;55.85;;;;;;;16.48;52.36;100192.00;5043344;28;20036;-74
2022/11/01 07:45:42;;;;;;;23.50;10.02;;;;;;;16.61;52.42;100189.94;5046772;28;20025;-67
2022/11/01 07:48:12;;;;;;;22.38;8.07;;;;;;;16.63;52.06;100186.75;5039601;28;20047;-67
2022/11/01 07:50:39;;;;;;;22.33;10.00;;;;;;;16.93;51.57;100184.38;5051298;28;20464;-67
2022/11/01 07:53:16;;;;;;;20.15;9.02;;;;;;;17.11;50.75;100187.72;5051240;28;20052;-67
2022/11/01 07:55:42;;;;;;;25.45;7.85;;;;;;;17.34;49.89;100180.63;5033454;28;20025;-67
2022/11/01 07:58:09;;;;;;;19.05;8.70;;;;;;;17.49;49.35;100176.97;5049632;28;20377;-67
2022/11/01 08:00:35;;;;;;;19.73;8.30;;;;;;;17.66;49.17;100178.63;5049568;28;20025;-68
2022/11/01 08:03:09;;;;;;;20.88;8.65;;;;;;;17.72;48.82;100170.66;5049171;28;20356;-68
2022/11/01 08:05:35;;;;;;;17.17;8.00;;;;;;;17.54;49.25;100164.56;5048758;28;20112;-67
2022/11/01 08:08:02;;;;;;;22.85;7.47;;;;;;;17.92;48.33;100174.41;5048202;28;20024;-66
2022/11/01 08:10:28;;;;;;;22.08;10.18;;;;;;;18.06;47.62;100173.94;5047517;28;20037;-67
2022/11/01 08:13:21;;;;;;;18.17;8.60;;;;;;;18.22;47.40;100170.22;5031215;28;20025;-67
2022/11/01 08:15:48;;;;;;;23.25;9.77;;;;;;;18.42;46.66;100168.25;5047270;28;20031;-68
2022/11/01 08:18:15;;;;;;;15.75;7.97;;;;;;;18.28;46.68;100163.09;5050472;28;20028;-67
2022/11/01 08:20:41;;;;;;;22.20;8.98;;;;;;;18.51;46.78;100165.19;5049281;28;20037;-67
2022/11/01 08:23:07;;;;;;;17.15;8.05;;;;;;;18.65;46.25;100164.69;5050883;28;20032;-67
2022/11/01 08:25:33;;;;;;;16.42;7.45;;;;;;;18.83;45.77;100162.19;5032433;28;20533;-67
2022/11/01 08:28:12;;;;;;;18.67;8.23;;;;;;;18.89;45.76;100151.38;5022824;28;20018;-67
2022/11/01 08:30:39;;;;;;;22.98;8.88;;;;;;;19.10;45.74;100165.16;5033264;28;20029;-67
2022/11/01 08:33:05;;;;;;;17.55;8.73;;;;;;;19.10;45.98;100153.81;5031945;28;20044;-67
2022/11/01 08:35:32;;;;;;;19.48;6.70;;;;;;;19.16;45.48;100143.78;5050737;28;20064;-67
2022/11/01 08:38:01;;;;;;;12.05;5.72;;;;;;;19.30;45.05;100139.56;5050152;28;20070;-66
2022/11/01 08:40:28;;;;;;;12.13;6.85;;;;;;;19.47;44.81;100135.41;5050775;28;20028;-68
2022/11/01 08:42:54;;;;;;;18.60;7.30;;;;;;;19.74;44.68;100144.75;5032556;28;20017;-67
2022/11/01 08:45:20;;;;;;;20.98;6.78;;;;;;;19.56;45.26;100138.00;5050674;28;20507;-67
2022/11/01 08:47:45;;;;;;;15.68;5.70;;;;;;;19.54;45.58;100140.38;5027664;28;20021;-67
2022/11/01 08:50:14;;;;;;;17.80;6.05;;;;;;;19.52;45.31;100137.94;5031056;28;20032;-67
2022/11/01 08:52:40;;;;;;;18.75;6.32;;;;;;;19.88;44.93;100141.31;5024629;28;20029;-72
2022/11/01 08:55:07;;;;;;;15.13;6.88;;;;;;;19.72;43.74;100132.97;5042496;28;20021;-66
2022/11/01 08:57:32;;;;;;;15.75;7.70;;;;;;;19.86;43.83;100137.22;5049435;28;20401;-66
2022/11/01 08:59:58;;;;;;;16.25;6.88;;;;;;;20.06;43.81;100135.09;5050951;28;20029;-65
2022/11/01 09:02:24;;;;;;;20.58;6.97;;;;;;;20.18;43.44;100131.22;5049501;28;20487;-66
2022/11/01 09:04:49;;;;;;;13.15;6.28;;;;;;;20.11;43.15;100139.63;5033258;28;20029;-66
2022/11/01 09:07:15;;;;;;;25.33;7.30;;;;;;;20.17;43.35;100138.91;5050529;28;20025;-67
2022/11/01 09:09:40;;;;;;;14.88;6.18;;;;;;;20.27;43.48;100128.91;5050639;28;20028;-67
2022/11/01 09:12:06;;;;;;;23.70;7.25;;;;;;;20.37;42.89;100135.09;5051671;28;20052;-67
2022/11/01 09:14:32;;;;;;;19.25;5.55;;;;;;;20.38;42.78;100131.88;5037360;28;20502;-66
2022/11/01 09:16:57;;;;;;;17.80;5.55;;;;;;;20.33;42.31;100126.53;5053741;28;20027;-66
2022/11/01 09:19:23;;;;;;;16.10;6.20;;;;;;;20.54;42.07;100126.00;5037139;28;20468;-66
2022/11/01 09:21:48;;;;;;;25.83;5.40;;;;;;;20.73;41.99;100121.31;5054852;28;20083;-71
2022/11/01 09:24:15;;;;;;;10.88;4.93;;;;;;;20.85;40.66;100123.13;5047553;28;20021;-73
2022/11/01 09:26:41;;;;;;;13.68;5.55;;;;;;;20.98;40.55;100117.97;5036718;28;20051;-73
2022/11/01 09:29:07;;;;;;;16.15;4.82;;;;;;;21.04;40.33;100103.00;5036463;28;20017;-65
2022/11/01 09:31:33;;;;;;;12.18;4.78;;;;;;;21.21;40.21;100102.72;5053119;28;20435;-68
2022/11/01 09:33:59;;;;;;;12.77;4.90;;;;;;;21.45;39.98;100102.13;5054228;28;20139;-65
2022/11/01 09:36:26;;;;;;;11.75;4.80;;;;;;;21.58;40.38;100102.63;5031473;28;20025;-67
2022/11/01 09:38:53;;;;;;;15.02;5.00;;;;;;;21.40;41.05;100099.66;5049213;28;20017;-66
2022/11/01 09:41:32;;;;;;;16.00;5.10;;;;;;;21.53;40.11;100096.50;5050665;28;20021;-66
2022/11/01 09:44:00;;;;;;;17.92;5.38;;;;;;;21.55;39.69;100088.38;5052898;28;20028;-66
2022/11/01 09:46:30;;;;;;;9.13;4.22;;;;;;;21.77;39.12;100094.25;5033132;28;20036;-71
2022/11/01 09:48:59;;;;;;;10.18;4.57;;;;;;;21.77;39.44;100085.72;5029884;28;20032;-71
2022/11/01 09:51:25;;;;;;;13.60;4.40;;;;;;;21.71;39.67;100074.69;5042178;28;20510;-67
2022/11/01 09:53:56;;;;;;;17.05;4.60;;;;;;;21.91;38.94;100079.28;5049630;28;20029;-70
2022/11/01 09:56:37;;;;;;;12.30;4.15;;;;;;;22.04;39.55;100069.19;5052410;28;20031;-67
2022/11/01 09:59:29;;;;;;;12.15;4.50;;;;;;;22.09;39.17;100070.84;5033055;28;20024;-65
2022/11/01 10:02:47;;;;;;;12.82;4.78;;;;;;;22.08;38.63;100075.72;5030615;28;20536;-70
2022/11/01 10:05:29;;;;;;;23.80;4.90;;;;;;;22.13;38.72;100071.66;5045610;28;20029;-70
2022/11/01 10:08:24;;;;;;;15.80;4.32;;;;;;;22.27;38.00;100068.88;5048689;28;20024;-68
2022/11/01 10:10:55;;;;;;;16.92;4.07;;;;;;;22.25;38.94;100059.91;5038253;28;20060;-66
2022/11/01 10:13:50;;;;;;;13.10;4.47;;;;;;;22.55;37.54;100050.25;5034994;28;20033;-66
2022/11/01 10:16:36;;;;;;;13.88;4.85;;;;;;;22.60;37.47;100049.03;5051121;28;20028;-67
2022/11/01 10:19:10;;;;;;;17.45;5.28;;;;;;;22.68;37.31;100052.72;5051307;28;20021;-68
2022/11/01 10:21:59;;;;;;;9.27;3.95;;;;;;;22.73;37.18;100046.63;5051875;28;20400;-66
2022/11/01 10:24:35;;;;;;;15.23;4.72;;;;;;;22.68;37.33;100047.03;5026926;28;20143;-67
2022/11/01 10:27:06;;;;;;;19.08;7.65;;;;;;;22.73;36.89;100046.63;5029602;28;20025;-68
2022/11/01 10:29:43;;;;;;;10.15;4.53;;;;;;;22.90;36.69;100039.31;5045859;28;20087;-66
2022/11/01 10:32:31;;;;;;;14.82;4.82;;;;;;;23.00;36.14;100044.22;5036508;28;20028;-67
2022/11/01 10:35:03;;;;;;;19.27;4.97;;;;;;;22.99;36.62;100038.91;5035558;28;20033;-67
2022/11/01 10:37:41;;;;;;;24.23;4.55;;;;;;;23.06;36.50;100038.94;5051227;28;20021;-66
2022/11/01 10:40:22;;;;;;;14.52;3.60;;;;;;;23.19;35.79;100035.66;5051081;28;20024;-68
2022/11/01 10:42:48;;;;;;;15.88;3.88;;;;;;;23.20;35.85;100020.19;5047962;28;20468;-68
2022/11/01 10:45:18;;;;;;;13.75;4.65;;;;;;;23.32;35.70;100019.78;5049954;28;20094;-67
2022/11/01 10:47:47;;;;;;;16.52;4.55;;;;;;;23.47;35.56;100019.75;5053099;28;20025;-67
2022/11/01 10:50:22;;;;;;;14.43;3.97;;;;;;;23.62;34.74;100015.63;5050149;28;20033;-68
2022/11/01 10:52:55;;;;;;;17.85;5.32;;;;;;;23.84;34.43;100015.56;5042296;28;20157;-67
2022/11/01 10:55:28;;;;;;;16.52;4.28;;;;;;;24.02;34.44;100003.28;5039379;28;20043;-68
2022/11/01 10:58:03;;;;;;;11.98;4.53;;;;;;;23.89;34.26;100003.75;5023416;28;20095;-68
2022/11/01 11:00:31;;;;;;;20.98;4.10;;;;;;;23.59;34.56;99996.47;5017702;28;20033;-67
2022/11/01 11:03:02;;;;;;;8.65;3.42;;;;;;;23.76;34.49;99986.22;5052335;28;20468;-67
2022/11/01 11:05:30;;;;;;;18.88;4.30;;;;;;;23.77;34.46;99992.75;5052272;28;20106;-67
2022/11/01 11:07:56;;;;;;;16.98;4.10;;;;;;;23.81;34.86;99991.50;5044868;28;20385;-67
2022/11/01 11:10:27;;;;;;;14.68;3.63;;;;;;;24.09;34.25;99974.69;5044797;28;20127;-67
2022/11/01 11:13:01;;;;;;;15.80;3.45;;;;;;;24.21;33.95;99982.78;5045819;28;20492;-69
2022/11/01 11:15:44;;;;;;;12.63;3.90;;;;;;;24.24;33.14;99973.38;5040190;28;20025;-69
2022/11/01 11:18:24;;;;;;;21.38;4.38;;;;;;;24.40;33.46;99972.06;5029646;28;20124;-69
2022/11/01 11:20:59;;;;;;;10.63;4.23;;;;;;;24.50;33.15;99970.38;5049284;28;20090;-68
2022/11/01 11:23:28;;;;;;;17.38;3.38;;;;;;;24.48;33.50;99965.06;5030195;28;20135;-67
2022/11/01 11:26:00;;;;;;;13.02;5.07;;;;;;;24.64;32.83;99958.81;5050004;28;20033;-69
2022/11/01 11:28:30;;;;;;;16.80;3.50;;;;;;;24.59;33.30;99959.28;5047878;28;20033;-70
2022/11/01 11:31:10;;;;;;;20.55;4.32;;;;;;;24.67;33.40;99960.03;5047448;28;20024;-68
2022/11/01 11:33:35;;;;;;;17.52;4.53;;;;;;;24.66;32.64;99949.84;5032861;28;20507;-67